createdAt,value
2022-09-09T00:02:12.048Z,12.50
2022-09-09T00:04:41.769Z,12.60
2022-09-09T00:07:33.029Z,12.40
2022-09-09T00:10:23.454Z,12.40
2022-09-09T00:12:56.992Z,12.30
2022-09-09T00:15:49.989Z,12.30
2022-09-09T00:18:30.304Z,12.30
2022-09-09T00:21:08.894Z,12.40
2022-09-09T00:23:40.322Z,12.50
2022-09-09T00:26:35.034Z,12.60
2022-09-09T00:29:22.909Z,12.60
2022-09-09T00:31:50.532Z,12.60
2022-09-09T00:34:24.520Z,12.50
2022-09-09T00:36:54.910Z,12.50
2022-09-09T00:39:39.773Z,12.40
2022-09-09T00:42:20.414Z,12.40
2022-09-09T00:44:53.347Z,12.30
2022-09-09T00:47:38.372Z,12.30
2022-09-09T00:50:18.043Z,12.30
2022-09-09T00:53:10.411Z,12.20
2022-09-09T00:55:54.169Z,12.20
2022-09-09T00:58:20.971Z,12.10
2022-09-09T01:00:54.049Z,12.10
2022-09-09T01:03:48.835Z,12.20
2022-09-09T01:06:37.932Z,12.10
2022-09-09T01:09:59.197Z,12.10
2022-09-09T01:12:39.503Z,12.10
2022-09-09T01:15:12.827Z,12.10
2022-09-09T01:17:42.351Z,12.00
2022-09-09T01:20:21.882Z,11.90
2022-09-09T01:23:13.767Z,11.90
2022-09-09T01:26:05.443Z,11.80
2022-09-09T01:28:36.685Z,11.80
2022-09-09T01:31:07.690Z,11.70
2022-09-09T01:33:34.539Z,11.70
2022-09-09T01:36:07.646Z,11.60
2022-09-09T01:38:37.123Z,11.60
2022-09-09T01:41:04.730Z,11.60
2022-09-09T01:43:31.671Z,11.50
2022-09-09T01:46:02.101Z,11.50
2022-09-09T01:48:30.156Z,11.60
2022-09-09T01:50:57.268Z,11.60
2022-09-09T01:53:24.390Z,11.70
2022-09-09T01:56:18.699Z,11.80
2022-09-09T01:58:51.411Z,11.80
2022-09-09T02:01:29.379Z,11.70
2022-09-09T02:03:59.368Z,11.70
2022-09-09T02:06:35.112Z,11.80
2022-09-09T02:09:05.967Z,11.80
2022-09-09T02:11:34.335Z,11.80
2022-09-09T02:14:10.533Z,11.80
2022-09-09T02:17:04.282Z,12.00
2022-09-09T02:19:35.182Z,12.00
2022-09-09T02:22:03.258Z,12.00
2022-09-09T02:24:36.988Z,11.90
2022-09-09T02:27:07.471Z,11.90
2022-09-09T02:29:42.326Z,11.90
2022-09-09T02:32:22.875Z,12.00
2022-09-09T02:35:11.523Z,12.10
2022-09-09T02:37:40.864Z,12.10
2022-09-09T02:40:11.010Z,12.20
2022-09-09T02:42:46.391Z,12.20
2022-09-09T02:45:17.634Z,12.20
2022-09-09T02:47:44.446Z,12.20
2022-09-09T02:50:19.127Z,12.20
2022-09-09T02:53:00.094Z,12.30
2022-09-09T02:55:26.866Z,12.40
2022-09-09T02:57:55.258Z,12.40
2022-09-09T03:00:27.129Z,12.50
2022-09-09T03:02:55.530Z,12.50
2022-09-09T03:05:22.603Z,12.60
2022-09-09T03:07:50.736Z,12.60
2022-09-09T03:10:18.497Z,12.60
2022-09-09T03:12:45.350Z,12.60
2022-09-09T03:15:12.256Z,12.60
2022-09-09T03:17:39.102Z,12.60
2022-09-09T03:20:06.651Z,12.70
2022-09-09T03:22:33.514Z,12.70
2022-09-09T03:25:00.427Z,12.80
2022-09-09T03:27:27.306Z,12.80
2022-09-09T03:29:54.103Z,12.80
2022-09-09T03:32:23.375Z,12.90
2022-09-09T03:34:53.179Z,12.90
2022-09-09T03:37:21.039Z,12.90
2022-09-09T03:39:47.894Z,12.90
2022-09-09T03:42:19.208Z,12.90
2022-09-09T03:44:51.019Z,12.90
2022-09-09T03:47:19.635Z,13.00
2022-09-09T03:49:47.678Z,13.00
2022-09-09T03:52:14.736Z,13.00
2022-09-09T03:54:42.327Z,13.00
2022-09-09T03:57:10.180Z,13.00
2022-09-09T03:59:37.075Z,13.00
2022-09-09T04:02:04.610Z,13.00
2022-09-09T04:04:31.471Z,13.00
2022-09-09T04:06:58.287Z,13.00
2022-09-09T04:09:25.119Z,13.00
2022-09-09T04:11:51.915Z,13.00
2022-09-09T04:14:18.692Z,13.00
2022-09-09T04:16:45.750Z,13.00
2022-09-09T04:19:14.688Z,13.00
2022-09-09T04:21:42.808Z,13.00
2022-09-09T04:24:09.936Z,13.00
2022-09-09T04:26:37.614Z,13.00
2022-09-09T04:29:05.337Z,13.00
2022-09-09T04:31:32.540Z,13.00
2022-09-09T04:33:59.651Z,13.00
2022-09-09T04:36:26.455Z,13.00
2022-09-09T04:38:53.642Z,13.00
2022-09-09T04:41:20.470Z,13.00
2022-09-09T04:43:47.276Z,13.00
2022-09-09T04:46:14.164Z,13.00
2022-09-09T04:48:41.149Z,13.00
2022-09-09T04:51:13.407Z,12.90
2022-09-09T04:53:41.319Z,12.90
2022-09-09T04:56:11.162Z,13.00
2022-09-09T04:58:39.262Z,13.00
2022-09-09T05:01:12.022Z,13.00
2022-09-09T05:03:39.025Z,13.10
2022-09-09T05:06:11.858Z,13.10
2022-09-09T05:08:40.012Z,13.20
2022-09-09T05:11:20.230Z,13.10
2022-09-09T05:13:48.137Z,13.10
2022-09-09T05:16:15.879Z,13.10
2022-09-09T05:18:51.607Z,13.00
2022-09-09T05:21:20.081Z,13.00
2022-09-09T05:23:47.588Z,12.90
2022-09-09T05:26:17.643Z,12.90
2022-09-09T05:28:45.394Z,12.90
2022-09-09T05:31:13.880Z,12.90
2022-09-09T05:33:44.118Z,13.00
2022-09-09T05:36:22.572Z,13.20
2022-09-09T05:38:50.890Z,13.50
2022-09-09T05:41:18.549Z,13.80
2022-09-09T05:43:46.608Z,14.10
2022-09-09T05:46:16.292Z,14.40
2022-09-09T05:48:47.374Z,14.60
2022-09-09T05:51:19.978Z,14.70
2022-09-09T05:53:47.762Z,14.80
2022-09-09T05:56:18.556Z,14.90
2022-09-09T05:58:47.961Z,14.90
2022-09-09T06:01:20.611Z,15.00
2022-09-09T06:03:49.091Z,15.10
2022-09-09T06:06:18.702Z,15.20
2022-09-09T06:08:46.390Z,15.30
2022-09-09T06:11:28.207Z,15.30
2022-09-09T06:13:55.642Z,15.20
2022-09-09T06:16:25.703Z,15.20
2022-09-09T06:18:54.078Z,15.30
2022-09-09T06:21:23.182Z,15.30
2022-09-09T06:23:51.309Z,15.40
2022-09-09T06:26:31.344Z,15.50
2022-09-09T06:29:01.699Z,15.70
2022-09-09T06:31:35.188Z,15.70
2022-09-09T06:34:02.510Z,15.90
2022-09-09T06:36:32.221Z,16.10
2022-09-09T06:38:59.690Z,16.20
2022-09-09T06:41:28.655Z,16.40
2022-09-09T06:43:56.561Z,16.50
2022-09-09T06:46:28.818Z,16.70
2022-09-09T06:48:57.158Z,16.70
2022-09-09T06:51:26.869Z,16.80
2022-09-09T06:53:55.986Z,16.70
2022-09-09T06:56:31.937Z,16.90
2022-09-09T06:59:04.856Z,17.00
2022-09-09T07:01:34.152Z,17.00
2022-09-09T07:04:01.965Z,17.20
2022-09-09T07:06:40.905Z,17.30
2022-09-09T07:09:10.335Z,17.30
2022-09-09T07:11:45.814Z,17.30
2022-09-09T07:14:15.013Z,17.30
2022-09-09T07:16:43.181Z,17.40
2022-09-09T07:19:10.834Z,17.40
2022-09-09T07:21:37.983Z,17.60
2022-09-09T07:24:08.357Z,17.70
2022-09-09T07:26:36.295Z,17.80
2022-09-09T07:29:03.353Z,17.90
2022-09-09T07:31:33.419Z,18.00
2022-09-09T07:34:01.146Z,18.10
2022-09-09T07:36:33.565Z,18.10
2022-09-09T07:39:04.220Z,18.10
2022-09-09T07:41:35.352Z,18.20
2022-09-09T07:44:11.851Z,18.10
2022-09-09T07:46:40.953Z,18.00
2022-09-09T07:49:09.492Z,17.90
2022-09-09T07:51:42.031Z,17.90
2022-09-09T07:54:12.101Z,18.00
2022-09-09T07:56:40.440Z,18.00
2022-09-09T07:59:07.978Z,18.00
2022-09-09T08:01:56.457Z,18.00
2022-09-09T08:04:24.851Z,17.90
2022-09-09T08:06:54.209Z,17.90
2022-09-09T08:09:22.067Z,17.90
2022-09-09T08:11:49.369Z,17.80
2022-09-09T08:14:16.264Z,17.90
2022-09-09T08:16:46.002Z,17.90
2022-09-09T08:19:13.402Z,17.90
2022-09-09T08:21:41.823Z,17.90
2022-09-09T08:24:11.480Z,18.00
2022-09-09T08:26:42.578Z,17.90
2022-09-09T08:29:11.238Z,17.90
2022-09-09T08:31:45.239Z,18.00
2022-09-09T08:34:13.313Z,18.00
2022-09-09T08:36:45.689Z,18.10
2022-09-09T08:39:15.483Z,18.10
2022-09-09T08:42:01.675Z,18.10
2022-09-09T08:44:48.897Z,18.10
2022-09-09T08:47:34.284Z,18.00
2022-09-09T08:50:30.404Z,17.80
2022-09-09T08:53:09.249Z,17.70
2022-09-09T08:55:46.204Z,17.60
2022-09-09T08:58:17.847Z,17.60
2022-09-09T09:00:53.758Z,17.60
2022-09-09T09:03:26.840Z,17.60
2022-09-09T09:06:08.005Z,17.60
2022-09-09T09:08:52.555Z,17.60
2022-09-09T09:11:19.453Z,17.60
2022-09-09T09:14:08.874Z,17.70
2022-09-09T09:17:00.358Z,17.60
2022-09-09T09:19:29.293Z,17.60
2022-09-09T09:22:32.608Z,17.70
2022-09-09T09:25:27.840Z,17.80
2022-09-09T09:28:13.370Z,18.00
2022-09-09T09:30:46.968Z,18.30
2022-09-09T09:33:17.344Z,18.90
2022-09-09T09:35:44.716Z,19.40
2022-09-09T09:41:10.527Z,20.40
2022-09-09T09:43:43.682Z,20.70
2022-09-09T09:46:26.650Z,21.20
2022-09-09T09:49:09.822Z,20.90
2022-09-09T09:51:37.557Z,21.50
2022-09-09T09:54:19.769Z,21.70
2022-09-09T09:56:47.322Z,21.80
2022-09-09T09:59:39.243Z,22.10
2022-09-09T10:02:26.690Z,22.50
2022-09-09T10:05:07.790Z,22.40
2022-09-09T10:07:35.297Z,22.40
2022-09-09T10:10:02.665Z,22.30
2022-09-09T10:12:29.541Z,22.20
2022-09-09T10:15:07.064Z,21.90
2022-09-09T10:17:36.858Z,21.50
2022-09-09T10:20:25.038Z,21.30
2022-09-09T10:22:55.351Z,21.10
2022-09-09T10:25:25.374Z,21.00
2022-09-09T10:28:03.959Z,20.70
2022-09-09T10:30:50.012Z,20.50
2022-09-09T10:33:43.176Z,20.60
2022-09-09T10:36:13.033Z,20.50
2022-09-09T10:39:03.312Z,20.40
2022-09-09T10:41:40.835Z,20.20
2022-09-09T10:44:20.093Z,20.10
2022-09-09T10:47:27.833Z,20.00
2022-09-09T10:50:50.375Z,19.90
2022-09-09T10:53:47.397Z,19.70
2022-09-09T10:56:19.630Z,19.50
2022-09-09T10:59:01.459Z,19.20
2022-09-09T11:01:53.744Z,19.00
2022-09-09T11:04:26.775Z,18.90
2022-09-09T11:06:57.191Z,18.80
2022-09-09T11:09:29.667Z,18.70
2022-09-09T11:11:58.840Z,18.70
2022-09-09T11:14:44.073Z,18.80
2022-09-09T11:17:19.571Z,18.70
2022-09-09T11:19:46.707Z,18.80
2022-09-09T11:22:24.255Z,18.90
2022-09-09T11:24:55.714Z,18.90
2022-09-09T11:27:28.828Z,18.90
2022-09-09T11:30:15.730Z,18.70
2022-09-09T11:33:08.616Z,18.70
2022-09-09T11:36:07.925Z,18.70
2022-09-09T11:38:41.171Z,18.90
2022-09-09T11:41:11.054Z,19.20
2022-09-09T11:43:42.165Z,19.60
2022-09-09T11:46:10.624Z,20.00
2022-09-09T11:48:46.360Z,20.40
2022-09-09T11:51:27.019Z,20.70
2022-09-09T11:54:03.563Z,21.20
2022-09-09T11:56:33.343Z,21.40
2022-09-09T11:59:06.534Z,21.50
2022-09-09T12:01:39.103Z,21.40
2022-09-09T12:04:21.984Z,21.00
2022-09-09T12:07:05.000Z,20.70
2022-09-09T12:09:34.846Z,20.50
2022-09-09T12:12:14.665Z,20.50
2022-09-09T12:14:55.356Z,20.50
2022-09-09T12:17:25.756Z,20.70
2022-09-09T12:20:16.342Z,20.80
2022-09-09T12:23:04.308Z,20.90
2022-09-09T12:25:51.612Z,21.00
2022-09-09T12:28:24.734Z,21.00
2022-09-09T12:31:23.744Z,21.00
2022-09-09T12:33:51.094Z,20.80
2022-09-09T12:36:30.183Z,20.70
2022-09-09T12:39:00.764Z,20.60
2022-09-09T12:41:29.980Z,20.40
2022-09-09T12:44:11.136Z,20.30
2022-09-09T12:46:45.979Z,20.10
2022-09-09T12:49:35.034Z,20.10
2022-09-09T12:52:20.529Z,19.90
2022-09-09T12:54:48.819Z,19.80
2022-09-09T12:57:16.470Z,19.80
2022-09-09T12:59:46.340Z,19.80
2022-09-09T13:02:20.599Z,19.90
2022-09-09T13:04:48.153Z,19.80
2022-09-09T13:07:17.460Z,19.80
2022-09-09T13:09:46.100Z,19.80
2022-09-09T13:12:23.665Z,19.70
2022-09-09T13:14:54.434Z,19.60
2022-09-09T13:17:28.190Z,19.50
2022-09-09T13:19:56.670Z,19.50
2022-09-09T13:22:29.379Z,19.50
2022-09-09T13:25:07.634Z,19.40
2022-09-09T13:27:39.924Z,19.40
2022-09-09T13:30:26.221Z,19.20
2022-09-09T13:33:20.950Z,19.30
2022-09-09T13:35:51.300Z,19.20
2022-09-09T13:38:18.647Z,19.20
2022-09-09T13:41:05.572Z,19.20
2022-09-09T13:43:53.363Z,19.30
2022-09-09T13:46:35.300Z,19.50
2022-09-09T13:49:09.833Z,19.80
2022-09-09T13:51:38.308Z,20.10
2022-09-09T13:54:07.615Z,20.20
2022-09-09T13:56:39.771Z,20.30
2022-09-09T13:59:11.502Z,20.50
2022-09-09T14:01:38.615Z,20.60
2022-09-09T14:04:09.589Z,20.60
2022-09-09T14:06:40.259Z,20.70
2022-09-09T14:09:08.496Z,20.60
2022-09-09T14:11:35.300Z,20.50
2022-09-09T14:14:02.189Z,20.40
2022-09-09T14:16:30.468Z,20.20
2022-09-09T14:18:58.177Z,20.10
2022-09-09T14:21:25.618Z,19.90
2022-09-09T14:23:53.790Z,19.80
2022-09-09T14:26:24.585Z,19.60
2022-09-09T14:28:56.276Z,19.40
2022-09-09T14:31:24.346Z,19.20
2022-09-09T14:33:52.035Z,19.00
2022-09-09T14:36:19.452Z,18.90
2022-09-09T14:38:46.250Z,18.70
2022-09-09T14:41:19.347Z,18.60
2022-09-09T14:43:46.769Z,18.60
2022-09-09T14:46:19.767Z,18.60
2022-09-09T14:48:49.562Z,18.60
2022-09-09T14:51:20.598Z,18.60
2022-09-09T14:53:47.801Z,18.60
2022-09-09T14:56:20.191Z,18.60
2022-09-09T14:58:47.423Z,18.70
2022-09-09T15:01:17.153Z,18.80
2022-09-09T15:03:53.356Z,19.10
2022-09-09T15:06:21.593Z,19.50
2022-09-09T15:08:51.050Z,19.70
2022-09-09T15:11:18.026Z,19.70
2022-09-09T15:13:45.428Z,19.80
2022-09-09T15:16:17.925Z,19.70
2022-09-09T15:18:46.411Z,19.70
2022-09-09T15:21:15.214Z,19.70
2022-09-09T15:23:42.519Z,19.80
2022-09-09T15:26:10.167Z,19.90
2022-09-09T15:28:39.090Z,19.90
2022-09-09T15:31:08.919Z,19.90
2022-09-09T15:33:38.459Z,19.80
2022-09-09T15:36:15.879Z,19.60
2022-09-09T15:38:43.056Z,19.60
2022-09-09T15:41:09.876Z,19.50
2022-09-09T15:43:37.060Z,19.50
2022-09-09T15:46:18.185Z,19.50
2022-09-09T15:48:47.264Z,19.40
2022-09-09T15:51:40.134Z,19.40
2022-09-09T15:54:03.102Z,19.40
2022-09-09T15:56:33.822Z,19.30
2022-09-09T15:59:01.219Z,19.30
2022-09-09T16:01:28.967Z,19.30
2022-09-09T16:03:55.890Z,19.30
2022-09-09T16:06:24.557Z,19.40
2022-09-09T16:08:53.637Z,19.50
2022-09-09T16:11:23.153Z,19.40
2022-09-09T16:13:51.819Z,19.40
2022-09-09T16:16:22.968Z,19.30
2022-09-09T16:18:53.082Z,19.20
2022-09-09T16:21:21.437Z,19.10
2022-09-09T16:23:50.396Z,19.00
2022-09-09T16:26:18.824Z,19.00
2022-09-09T16:28:47.514Z,19.00
2022-09-09T16:31:18.593Z,19.10
2022-09-09T16:33:46.118Z,19.10
2022-09-09T16:36:19.182Z,19.00
2022-09-09T16:38:46.131Z,18.90
2022-09-09T16:41:15.030Z,18.70
2022-09-09T16:43:42.448Z,18.70
2022-09-09T16:46:18.239Z,18.60
2022-09-09T16:48:48.769Z,18.50
2022-09-09T16:51:19.090Z,18.40
2022-09-09T16:53:46.299Z,18.40
2022-09-09T16:56:16.392Z,18.30
2022-09-09T16:58:46.871Z,18.20
2022-09-09T17:01:15.096Z,18.20
2022-09-09T17:03:42.482Z,18.10
2022-09-09T17:06:16.147Z,18.10
2022-09-09T17:08:43.478Z,18.00
2022-09-09T17:11:15.243Z,18.00
2022-09-09T17:13:43.840Z,17.80
2022-09-09T17:16:11.228Z,17.70
2022-09-09T17:18:38.574Z,17.60
2022-09-09T17:21:07.698Z,17.60
2022-09-09T17:23:40.078Z,17.50
2022-09-09T17:26:11.617Z,17.50
2022-09-09T17:28:40.087Z,17.40
2022-09-09T17:31:08.551Z,17.40
2022-09-09T17:33:37.685Z,17.30
2022-09-09T17:36:10.736Z,17.30
2022-09-09T17:38:37.699Z,17.30
2022-09-09T17:41:09.333Z,17.30
2022-09-09T17:43:39.524Z,17.30
2022-09-09T17:46:15.319Z,17.30
2022-09-09T17:48:43.793Z,17.30
2022-09-09T17:51:14.924Z,17.30
2022-09-09T17:53:44.039Z,17.40
2022-09-09T17:56:13.623Z,17.40
2022-09-09T17:58:40.915Z,17.30
2022-09-09T18:01:12.510Z,17.20
2022-09-09T18:03:40.707Z,17.20
2022-09-09T18:06:10.391Z,17.10
2022-09-09T18:08:37.295Z,17.10
2022-09-09T18:11:04.675Z,17.00
2022-09-09T18:13:31.854Z,17.00
2022-09-09T18:15:59.449Z,16.90
2022-09-09T18:18:27.239Z,16.90
2022-09-09T18:21:08.775Z,16.90
2022-09-09T18:23:37.555Z,16.90
2022-09-09T18:26:13.275Z,16.90
2022-09-09T18:28:41.907Z,16.90
2022-09-09T18:31:14.462Z,16.80
2022-09-09T18:33:44.135Z,16.80
2022-09-09T18:36:18.150Z,16.70
2022-09-09T18:38:45.470Z,16.70
2022-09-09T18:41:24.762Z,16.70
2022-09-09T18:43:55.123Z,16.60
2022-09-09T18:46:23.914Z,16.60
2022-09-09T18:48:51.646Z,16.50
2022-09-09T18:51:25.304Z,16.40
2022-09-09T18:53:58.058Z,16.40
2022-09-09T18:56:24.942Z,16.30
2022-09-09T18:58:53.174Z,16.30
2022-09-09T19:01:20.402Z,16.20
2022-09-09T19:03:47.538Z,16.20
2022-09-09T19:06:17.736Z,16.10
2022-09-09T19:08:46.793Z,16.10
2022-09-09T19:11:20.230Z,16.10
2022-09-09T19:13:55.683Z,16.10
2022-09-09T19:16:24.154Z,16.00
2022-09-09T19:18:52.676Z,16.00
2022-09-09T19:21:23.112Z,16.00
2022-09-09T19:24:06.256Z,16.00
2022-09-09T19:26:40.459Z,16.00
2022-09-09T19:29:15.289Z,15.90
2022-09-09T19:32:01.982Z,15.90
2022-09-09T19:34:30.806Z,15.90
2022-09-09T19:36:57.796Z,15.80
2022-09-09T19:39:24.767Z,15.80
2022-09-09T19:41:51.603Z,15.80
2022-09-09T19:44:18.543Z,15.70
2022-09-09T19:46:47.288Z,15.70
2022-09-09T19:49:15.576Z,15.60
2022-09-09T19:51:43.367Z,15.60
2022-09-09T19:54:14.080Z,15.60
2022-09-09T19:56:43.234Z,15.60
2022-09-09T19:59:11.875Z,15.50
2022-09-09T20:01:47.217Z,15.50
2022-09-09T20:04:14.967Z,15.50
2022-09-09T20:06:44.363Z,15.50
2022-09-09T20:09:18.173Z,15.40
2022-09-09T20:11:46.851Z,15.30
2022-09-09T20:14:14.663Z,15.40
2022-09-09T20:16:42.548Z,15.30
2022-09-09T20:19:12.366Z,15.30
2022-09-09T20:21:47.343Z,15.30
2022-09-09T20:24:16.515Z,15.20
2022-09-09T20:26:44.607Z,15.20
2022-09-09T20:29:16.155Z,15.20
2022-09-09T20:31:45.050Z,15.20
2022-09-09T20:34:15.289Z,15.20
2022-09-09T20:36:43.287Z,15.20
2022-09-09T20:39:15.995Z,15.10
2022-09-09T20:41:44.613Z,15.10
2022-09-09T20:44:16.016Z,15.10
2022-09-09T20:46:48.302Z,15.10
2022-09-09T20:49:20.030Z,15.00
2022-09-09T20:51:49.736Z,15.10
2022-09-09T20:54:25.041Z,15.00
2022-09-09T20:56:54.395Z,15.00
2022-09-09T20:59:27.190Z,15.00
2022-09-09T21:01:56.815Z,15.00
2022-09-09T21:04:25.023Z,15.00
2022-09-09T21:06:52.242Z,15.00
2022-09-09T21:09:20.425Z,15.00
2022-09-09T21:11:47.288Z,14.90
2022-09-09T21:14:14.650Z,14.90
2022-09-09T21:16:41.541Z,14.90
2022-09-09T21:19:08.510Z,14.90
2022-09-09T21:21:36.291Z,14.90
2022-09-09T21:24:03.338Z,14.90
2022-09-09T21:26:30.135Z,14.90
2022-09-09T21:28:57.183Z,14.80
2022-09-09T21:31:27.724Z,14.90
2022-09-09T21:33:56.703Z,14.90
2022-09-09T21:36:24.103Z,14.80
2022-09-09T21:38:51.049Z,14.80
2022-09-09T21:41:18.153Z,14.80
2022-09-09T21:43:46.818Z,14.80
2022-09-09T21:46:16.589Z,14.80
2022-09-09T21:48:44.255Z,14.80
2022-09-09T21:51:14.668Z,14.80
2022-09-09T21:53:42.298Z,14.80
2022-09-09T21:56:17.789Z,14.90
2022-09-09T21:58:45.059Z,15.00
2022-09-09T22:01:14.803Z,15.00
2022-09-09T22:03:42.746Z,15.10
2022-09-09T22:06:12.955Z,15.00
2022-09-09T22:08:40.099Z,15.00
2022-09-09T22:11:18.971Z,15.00
2022-09-09T22:13:48.941Z,14.90
2022-09-09T22:16:18.392Z,14.90
2022-09-09T22:18:50.329Z,14.80
2022-09-09T22:21:18.334Z,14.80
2022-09-09T22:23:50.179Z,14.80
2022-09-09T22:26:16.966Z,14.80
2022-09-09T22:28:43.842Z,14.70
2022-09-09T22:31:10.690Z,14.70
2022-09-09T22:33:37.579Z,14.60
2022-09-09T22:36:05.108Z,14.60
2022-09-09T22:38:34.720Z,14.60
2022-09-09T22:41:02.966Z,14.60
2022-09-09T22:43:30.939Z,14.60
2022-09-09T22:45:57.812Z,14.60
2022-09-09T22:48:24.777Z,14.50
2022-09-09T22:50:51.607Z,14.60
2022-09-09T22:53:21.456Z,14.60
2022-09-09T22:56:00.508Z,14.60
2022-09-09T22:58:29.294Z,14.50
2022-09-09T23:00:59.825Z,14.50
2022-09-09T23:03:28.450Z,14.40
2022-09-09T23:05:57.951Z,14.30
2022-09-09T23:08:27.611Z,14.30
2022-09-09T23:10:55.780Z,14.30
2022-09-09T23:13:23.387Z,14.30
2022-09-09T23:15:51.377Z,14.30
2022-09-09T23:18:18.661Z,14.30
2022-09-09T23:20:46.135Z,14.30
2022-09-09T23:23:13.363Z,14.30
2022-09-09T23:25:40.202Z,14.30
2022-09-09T23:28:06.974Z,14.30
2022-09-09T23:30:33.730Z,14.30
2022-09-09T23:33:00.526Z,14.30
2022-09-09T23:35:27.327Z,14.30
2022-09-09T23:37:54.207Z,14.30
2022-09-09T23:40:21.064Z,14.30
2022-09-09T23:42:48.007Z,14.30
2022-09-09T23:45:15.053Z,14.30
2022-09-09T23:47:41.876Z,14.30
2022-09-09T23:50:10.037Z,14.30
2022-09-09T23:52:37.294Z,14.30
2022-09-09T23:55:05.631Z,14.30
2022-09-09T23:57:32.401Z,14.30
2022-09-09T23:59:59.179Z,14.30
